Time;durP1;ratioP1;P1;durP2;ratioP2;P2;SDS_P1;SDS_P2;PMS_P1;PMS_P2;Temp;Humidity;BMP_temperature;BMP_pressure;BME280_temperature;BME280_humidity;BME280_pressure;Samples;Min_cycle;Max_cycle;Signal;HPM_P1;HPM_P2
2023/08/30 00:01:58;;;;;;;20.17;16.13;;;12.90;99.90;;;;;;5074885;28;20483;-67
2023/08/30 00:04:25;;;;;;;20.73;15.82;;;12.90;99.90;;;;;;5076515;28;20055;-67
2023/08/30 00:06:52;;;;;;;19.08;15.45;;;12.90;99.90;;;;;;5077439;28;20051;-67
2023/08/30 00:09:19;;;;;;;18.83;14.93;;;12.80;99.90;;;;;;5093078;28;20434;-67
2023/08/30 00:11:47;;;;;;;17.50;15.07;;;12.80;99.90;;;;;;5093269;28;20036;-67
2023/08/30 00:14:14;;;;;;;17.55;15.25;;;12.80;99.90;;;;;;5093298;28;20101;-67
2023/08/30 00:16:41;;;;;;;18.55;15.15;;;12.80;99.90;;;;;;5092625;28;20442;-67
2023/08/30 00:19:08;;;;;;;18.70;15.18;;;12.80;99.90;;;;;;5093473;28;20468;-67
2023/08/30 00:21:35;;;;;;;19.17;15.20;;;12.80;99.90;;;;;;5093271;28;20067;-67
2023/08/30 00:24:02;;;;;;;18.77;14.90;;;12.70;99.90;;;;;;5092580;28;20412;-67
2023/08/30 00:26:29;;;;;;;17.15;13.98;;;12.60;99.90;;;;;;5093163;28;20043;-67
2023/08/30 00:28:57;;;;;;;18.65;15.50;;;12.70;99.90;;;;;;5092308;28;20043;-67
2023/08/30 00:31:24;;;;;;;18.75;15.15;;;12.60;99.90;;;;;;5093399;28;20183;-66
2023/08/30 00:33:51;;;;;;;18.27;15.18;;;12.60;99.90;;;;;;5094477;28;20093;-66
2023/08/30 00:36:18;;;;;;;21.58;15.68;;;12.60;99.90;;;;;;5093268;28;20044;-67
2023/08/30 00:38:45;;;;;;;18.00;15.00;;;12.60;99.90;;;;;;5092673;28;20381;-68
2023/08/30 00:41:12;;;;;;;18.73;15.52;;;12.60;99.90;;;;;;5094287;28;20043;-67
2023/08/30 00:43:40;;;;;;;20.80;16.00;;;12.50;99.90;;;;;;5111497;28;20047;-65
2023/08/30 00:46:08;;;;;;;19.10;15.43;;;12.50;99.90;;;;;;5094470;28;20048;-66
2023/08/30 00:48:35;;;;;;;19.55;14.77;;;12.40;99.90;;;;;;5075392;28;20044;-66
2023/08/30 00:51:02;;;;;;;22.50;15.77;;;12.40;99.90;;;;;;5093206;28;20092;-67
2023/08/30 00:53:29;;;;;;;17.95;15.18;;;12.40;99.90;;;;;;5131183;28;20096;-66
2023/08/30 00:55:56;;;;;;;20.80;14.85;;;12.30;99.90;;;;;;5113244;28;20113;-66
2023/08/30 00:58:26;;;;;;;19.60;14.10;;;12.30;99.90;;;;;;5130783;28;20107;-67
2023/08/30 01:00:54;;;;;;;19.63;16.08;;;12.30;99.90;;;;;;5131339;28;20042;-66
2023/08/30 01:03:23;;;;;;;21.60;15.80;;;12.20;99.90;;;;;;5113037;28;20054;-66
2023/08/30 01:05:50;;;;;;;17.92;14.77;;;12.20;99.90;;;;;;5112752;27;20078;-66
2023/08/30 01:08:17;;;;;;;18.27;15.20;;;12.20;99.90;;;;;;5134023;27;20050;-66
2023/08/30 01:10:53;;;;;;;20.00;15.52;;;12.20;99.90;;;;;;5116782;27;20035;-66
2023/08/30 01:13:22;;;;;;;18.42;14.70;;;12.20;99.90;;;;;;5104357;27;20048;-66
2023/08/30 01:15:50;;;;;;;19.42;15.50;;;12.20;99.90;;;;;;5096667;27;20063;-66
2023/08/30 01:18:20;;;;;;;20.35;15.13;;;12.20;99.90;;;;;;5096614;27;20403;-67
2023/08/30 01:20:49;;;;;;;18.88;14.45;;;12.20;99.90;;;;;;5078360;28;20381;-67
2023/08/30 01:23:26;;;;;;;19.40;15.07;;;12.20;99.90;;;;;;5079110;27;20058;-67
2023/08/30 01:25:59;;;;;;;17.05;13.55;;;12.30;99.90;;;;;;5078362;27;20445;-67
2023/08/30 01:28:30;;;;;;;17.13;13.23;;;12.30;99.90;;;;;;5096513;27;20641;-68
2023/08/30 01:30:58;;;;;;;19.83;14.68;;;12.30;99.90;;;;;;5096042;27;20480;-67
2023/08/30 01:33:27;;;;;;;17.02;14.18;;;12.30;99.90;;;;;;5112676;28;20051;-67
2023/08/30 01:35:58;;;;;;;17.48;14.27;;;12.30;99.90;;;;;;5097110;28;20043;-68
2023/08/30 01:38:26;;;;;;;17.80;14.57;;;12.30;99.90;;;;;;5097306;27;20488;-67
2023/08/30 01:40:54;;;;;;;18.08;13.98;;;12.30;99.90;;;;;;5079150;28;20052;-67
2023/08/30 01:43:21;;;;;;;19.98;14.77;;;12.20;99.90;;;;;;5095928;27;20055;-66
2023/08/30 01:45:50;;;;;;;17.88;14.05;;;12.20;99.90;;;;;;5095935;28;20048;-67
2023/08/30 01:48:19;;;;;;;17.02;13.65;;;12.20;99.90;;;;;;5095402;27;20512;-67
2023/08/30 01:50:46;;;;;;;18.40;14.05;;;12.10;99.90;;;;;;5134210;27;20039;-66
2023/08/30 01:53:15;;;;;;;19.65;13.43;;;12.10;99.90;;;;;;5116308;27;20043;-66
2023/08/30 01:55:43;;;;;;;19.75;14.00;;;12.10;99.90;;;;;;5115526;27;20070;-66
2023/08/30 01:58:10;;;;;;;16.83;13.43;;;12.00;99.90;;;;;;5134029;27;20062;-66
2023/08/30 02:00:37;;;;;;;17.10;12.88;;;12.00;99.90;;;;;;5134169;27;20082;-67
2023/08/30 02:03:11;;;;;;;20.00;13.30;;;12.00;99.90;;;;;;5133432;27;20491;-67
2023/08/30 02:05:45;;;;;;;19.02;14.00;;;12.00;99.90;;;;;;5134218;27;20047;-67
2023/08/30 02:08:17;;;;;;;17.73;13.75;;;12.00;99.90;;;;;;5133513;27;20059;-67
2023/08/30 02:10:52;;;;;;;18.73;13.50;;;12.00;99.90;;;;;;5115793;27;20039;-67
2023/08/30 02:13:22;;;;;;;18.45;12.82;;;12.10;99.90;;;;;;5134078;27;20059;-66
2023/08/30 02:15:50;;;;;;;19.60;13.45;;;12.10;99.90;;;;;;5112116;28;20048;-66
2023/08/30 02:18:19;;;;;;;16.80;12.43;;;12.10;99.90;;;;;;5077362;27;20094;-66
2023/08/30 02:20:47;;;;;;;16.02;12.40;;;12.10;99.90;;;;;;5095452;27;20113;-66
2023/08/30 02:23:14;;;;;;;15.35;12.80;;;12.10;99.90;;;;;;5094550;28;20047;-66
2023/08/30 02:25:41;;;;;;;17.25;12.60;;;12.10;99.90;;;;;;5077495;27;20063;-66
2023/08/30 02:28:08;;;;;;;16.23;12.70;;;12.20;99.90;;;;;;5094862;27;20048;-66
2023/08/30 02:30:35;;;;;;;18.35;12.43;;;12.20;99.90;;;;;;5111460;28;20425;-66
2023/08/30 02:33:02;;;;;;;16.13;12.00;;;12.20;99.90;;;;;;5114181;28;20419;-66
2023/08/30 02:35:30;;;;;;;15.93;12.65;;;12.30;99.90;;;;;;5096170;28;20055;-66
2023/08/30 02:37:57;;;;;;;15.15;12.48;;;12.30;99.90;;;;;;5113432;28;20434;-67
2023/08/30 02:40:24;;;;;;;18.23;12.00;;;12.30;99.90;;;;;;5096020;28;20051;-66
2023/08/30 02:42:51;;;;;;;14.55;11.57;;;12.40;99.90;;;;;;5095638;28;20055;-67
2023/08/30 02:45:18;;;;;;;16.30;11.75;;;12.40;99.90;;;;;;5104005;27;20109;-66
2023/08/30 02:47:46;;;;;;;15.55;12.07;;;12.40;99.90;;;;;;5078525;28;20085;-67
2023/08/30 02:50:13;;;;;;;13.05;10.80;;;12.40;99.90;;;;;;5094111;28;20044;-67
2023/08/30 02:52:41;;;;;;;15.02;11.63;;;12.40;99.90;;;;;;5077602;28;20048;-66
2023/08/30 02:55:08;;;;;;;17.08;12.02;;;12.50;99.90;;;;;;5111384;28;20039;-67
2023/08/30 02:57:35;;;;;;;14.20;11.07;;;12.40;99.90;;;;;;5103818;27;20109;-67
2023/08/30 03:00:05;;;;;;;15.63;11.10;;;12.40;99.90;;;;;;5094486;28;20515;-68
2023/08/30 03:02:32;;;;;;;16.10;10.70;;;12.30;99.90;;;;;;5094650;27;20079;-66
2023/08/30 03:05:00;;;;;;;16.05;12.02;;;12.30;99.90;;;;;;5077194;28;20052;-67
2023/08/30 03:07:29;;;;;;;16.55;11.30;;;12.20;99.90;;;;;;5093411;28;20047;-67
2023/08/30 03:09:58;;;;;;;13.10;11.02;;;12.20;99.90;;;;;;5077249;28;20503;-66
2023/08/30 03:12:24;;;;;;;14.68;11.45;;;12.10;99.90;;;;;;5093700;28;20113;-67
2023/08/30 03:14:51;;;;;;;18.73;11.50;;;12.00;99.90;;;;;;5094558;27;20487;-67
2023/08/30 03:17:18;;;;;;;15.35;10.38;;;12.00;99.90;;;;;;5132604;27;20050;-66
2023/08/30 03:19:45;;;;;;;14.30;10.57;;;11.90;99.90;;;;;;5114105;27;20039;-68
2023/08/30 03:22:12;;;;;;;14.55;11.07;;;11.90;99.90;;;;;;5132530;27;20047;-67
2023/08/30 03:24:39;;;;;;;14.02;10.43;;;11.90;99.90;;;;;;5093144;28;20047;-67
2023/08/30 03:27:08;;;;;;;17.42;12.13;;;11.80;99.90;;;;;;5112623;28;20050;-67
2023/08/30 03:29:34;;;;;;;13.20;10.77;;;11.80;99.90;;;;;;5094479;28;20077;-67
2023/08/30 03:32:01;;;;;;;16.10;12.73;;;11.80;99.90;;;;;;5075576;28;20052;-68
2023/08/30 03:34:28;;;;;;;17.55;11.43;;;11.70;99.90;;;;;;5093233;27;20058;-66
2023/08/30 03:36:55;;;;;;;17.23;12.65;;;11.70;99.90;;;;;;5077630;28;20052;-67
2023/08/30 03:39:23;;;;;;;19.55;13.45;;;11.60;99.90;;;;;;5075107;28;20042;-68
2023/08/30 03:41:50;;;;;;;17.58;11.43;;;11.60;99.90;;;;;;5081239;28;20141;-68
2023/08/30 03:44:19;;;;;;;17.98;12.98;;;11.80;99.90;;;;;;5109157;28;20097;-65
2023/08/30 03:46:45;;;;;;;17.27;10.95;;;12.40;99.90;;;;;;5104554;27;20500;-65
2023/08/30 03:49:12;;;;;;;21.35;11.48;;;12.30;99.90;;;;;;5106877;28;20047;-67
2023/08/30 03:51:39;;;;;;;17.40;12.90;;;12.20;99.90;;;;;;5111766;28;20035;-67
2023/08/30 03:54:08;;;;;;;18.13;12.60;;;12.20;99.90;;;;;;5094010;28;20395;-67
2023/08/30 03:56:35;;;;;;;17.13;11.82;;;12.30;99.90;;;;;;5099260;28;20093;-66
2023/08/30 03:59:02;;;;;;;16.60;11.68;;;12.10;99.90;;;;;;5109260;28;20043;-66
2023/08/30 04:01:30;;;;;;;15.65;12.05;;;12.30;99.90;;;;;;5103846;27;20047;-67
2023/08/30 04:03:57;;;;;;;17.13;11.88;;;12.40;99.90;;;;;;5091048;28;20044;-66
2023/08/30 04:06:24;;;;;;;16.10;11.82;;;12.20;99.90;;;;;;5100710;27;20101;-66
2023/08/30 04:08:51;;;;;;;12.13;9.88;;;12.10;99.90;;;;;;5089036;28;20051;-67
2023/08/30 04:11:18;;;;;;;14.82;11.02;;;12.10;99.90;;;;;;5102041;28;20044;-66
2023/08/30 04:13:45;;;;;;;11.93;9.43;;;12.40;99.90;;;;;;5088809;28;20059;-66
2023/08/30 04:16:12;;;;;;;16.85;11.63;;;12.30;99.90;;;;;;5092303;28;20548;-66
2023/08/30 04:18:40;;;;;;;14.23;11.10;;;12.50;99.90;;;;;;5108571;28;20043;-67
2023/08/30 04:21:08;;;;;;;20.10;12.00;;;12.40;99.90;;;;;;5100455;28;20055;-67
2023/08/30 04:23:35;;;;;;;14.02;10.60;;;12.50;99.90;;;;;;5091685;28;20044;-68
2023/08/30 04:26:02;;;;;;;12.07;9.75;;;12.50;99.90;;;;;;5105152;28;20058;-66
2023/08/30 04:28:29;;;;;;;11.52;8.85;;;12.50;99.90;;;;;;5106108;28;20047;-67
2023/08/30 04:30:56;;;;;;;11.23;8.25;;;12.60;99.90;;;;;;5105476;28;20043;-67
2023/08/30 04:33:23;;;;;;;13.98;10.23;;;13.00;99.90;;;;;;5111660;28;20071;-68
2023/08/30 04:35:53;;;;;;;14.52;9.73;;;12.80;99.90;;;;;;5075398;28;20578;-67
2023/08/30 04:38:20;;;;;;;19.70;11.93;;;12.70;99.90;;;;;;5093042;28;20043;-67
2023/08/30 04:40:48;;;;;;;16.92;11.85;;;12.50;99.90;;;;;;5091702;28;20085;-67
2023/08/30 04:43:15;;;;;;;13.23;10.32;;;12.30;99.90;;;;;;5117340;27;20048;-66
2023/08/30 04:45:42;;;;;;;15.55;11.75;;;12.10;99.90;;;;;;5092342;28;20100;-67
2023/08/30 04:48:09;;;;;;;16.00;10.95;;;12.00;99.90;;;;;;5115331;27;20047;-67
2023/08/30 04:50:36;;;;;;;15.20;11.30;;;12.00;99.90;;;;;;5110442;28;20043;-67
2023/08/30 04:53:04;;;;;;;15.00;10.57;;;11.90;99.90;;;;;;5092615;28;20065;-67
2023/08/30 04:55:31;;;;;;;12.73;10.57;;;11.90;99.90;;;;;;5109133;28;20052;-67
2023/08/30 04:57:58;;;;;;;13.30;10.30;;;11.90;99.90;;;;;;5093227;28;20085;-67
2023/08/30 05:00:25;;;;;;;14.95;10.50;;;11.90;99.90;;;;;;5111344;28;20375;-66
2023/08/30 05:02:52;;;;;;;15.55;10.80;;;11.90;99.90;;;;;;5106644;27;20093;-67
2023/08/30 05:05:19;;;;;;;13.45;10.02;;;11.90;99.90;;;;;;5094103;28;20043;-67
2023/08/30 05:07:46;;;;;;;17.15;10.80;;;11.90;99.90;;;;;;5093774;28;20059;-67
2023/08/30 05:10:14;;;;;;;13.65;10.73;;;11.90;99.90;;;;;;5087336;28;20518;-67
2023/08/30 05:12:44;;;;;;;17.45;11.43;;;12.00;99.90;;;;;;5091964;28;20156;-67
2023/08/30 05:15:11;;;;;;;14.05;9.98;;;12.00;99.90;;;;;;5095759;28;20073;-68
2023/08/30 05:17:38;;;;;;;13.57;9.70;;;12.10;99.90;;;;;;5112489;28;20044;-68
2023/08/30 05:20:06;;;;;;;13.45;10.02;;;12.10;99.90;;;;;;5109904;27;20048;-67
2023/08/30 05:22:33;;;;;;;12.98;10.10;;;12.20;99.90;;;;;;5092518;28;20044;-67
2023/08/30 05:25:00;;;;;;;11.50;9.27;;;12.20;99.90;;;;;;5089101;27;20055;-67
2023/08/30 05:27:28;;;;;;;12.20;9.45;;;12.30;99.90;;;;;;5094747;28;20048;-66
2023/08/30 05:29:55;;;;;;;12.13;9.85;;;12.30;99.90;;;;;;5111080;27;20208;-67
2023/08/30 05:32:23;;;;;;;13.75;10.20;;;12.30;99.90;;;;;;5092775;28;20111;-65
2023/08/30 05:34:49;;;;;;;14.40;10.13;;;12.40;99.90;;;;;;5110530;28;20051;-66
2023/08/30 05:37:16;;;;;;;12.30;9.43;;;12.40;99.90;;;;;;5093269;28;20496;-67
2023/08/30 05:39:43;;;;;;;13.98;9.82;;;12.50;99.90;;;;;;5092306;27;20164;-67
2023/08/30 05:42:10;;;;;;;12.68;10.00;;;12.60;99.90;;;;;;5092814;28;20044;-67
2023/08/30 05:44:38;;;;;;;17.02;10.88;;;12.70;99.90;;;;;;5095897;28;20514;-67
2023/08/30 05:47:06;;;;;;;12.77;9.38;;;12.70;99.90;;;;;;5109361;27;20499;-67
2023/08/30 05:49:33;;;;;;;16.73;10.02;;;12.80;99.90;;;;;;5104571;27;20040;-67
2023/08/30 05:52:00;;;;;;;16.73;9.77;;;12.80;99.90;;;;;;5094352;28;20043;-67
2023/08/30 05:54:29;;;;;;;14.05;9.85;;;12.90;99.90;;;;;;5090040;28;20043;-67
2023/08/30 05:56:56;;;;;;;11.60;9.48;;;12.90;99.90;;;;;;5095025;28;20055;-67
2023/08/30 05:59:23;;;;;;;13.90;9.60;;;13.10;99.90;;;;;;5097355;27;20059;-67
2023/08/30 06:01:51;;;;;;;10.80;8.85;;;13.10;99.90;;;;;;5100500;28;20043;-68
2023/08/30 06:04:18;;;;;;;13.32;9.40;;;13.20;99.90;;;;;;5095432;28;20113;-68
2023/08/30 06:06:45;;;;;;;12.80;9.07;;;13.40;99.90;;;;;;5111761;28;20046;-68
2023/08/30 06:09:13;;;;;;;13.10;8.95;;;13.50;99.90;;;;;;5095124;28;20104;-67
2023/08/30 06:11:39;;;;;;;15.50;9.50;;;13.60;99.90;;;;;;5114810;28;20075;-69
2023/08/30 06:14:07;;;;;;;10.93;8.60;;;13.80;99.90;;;;;;5095145;28;20043;-67
2023/08/30 06:16:33;;;;;;;13.15;9.10;;;13.80;99.90;;;;;;5094178;27;20051;-67
2023/08/30 06:19:02;;;;;;;13.43;8.98;;;14.00;99.90;;;;;;5115518;27;20462;-68
2023/08/30 06:21:29;;;;;;;11.82;8.75;;;14.20;99.90;;;;;;5114899;27;20432;-68
2023/08/30 06:23:56;;;;;;;10.25;8.13;;;14.50;99.90;;;;;;5133979;27;20043;-67
2023/08/30 06:26:23;;;;;;;13.63;8.77;;;14.90;99.90;;;;;;5133334;27;20062;-67
2023/08/30 06:28:50;;;;;;;11.88;9.02;;;15.30;99.90;;;;;;5133166;27;20043;-67
2023/08/30 06:31:17;;;;;;;10.50;8.25;;;15.80;99.90;;;;;;5133387;27;20050;-68
2023/08/30 06:33:44;;;;;;;14.38;8.35;;;16.20;99.90;;;;;;5097640;28;20047;-67
2023/08/30 06:36:15;;;;;;;11.88;8.48;;;16.60;99.90;;;;;;5078236;28;20040;-67
2023/08/30 06:38:42;;;;;;;10.23;8.07;;;16.80;99.90;;;;;;5079405;28;20058;-68
2023/08/30 06:41:09;;;;;;;10.07;7.47;;;16.80;99.90;;;;;;5094905;27;20054;-67
2023/08/30 06:43:36;;;;;;;13.13;8.52;;;16.50;99.90;;;;;;5094202;27;20400;-68
2023/08/30 06:46:03;;;;;;;10.52;7.78;;;16.10;99.90;;;;;;5094693;27;20071;-68
2023/08/30 06:48:30;;;;;;;11.35;7.88;;;15.80;99.90;;;;;;5094644;27;20491;-68
2023/08/30 06:50:59;;;;;;;11.75;8.55;;;15.70;99.90;;;;;;5094108;27;20047;-67
2023/08/30 06:53:27;;;;;;;11.80;7.93;;;15.50;99.90;;;;;;5101784;27;20048;-68
2023/08/30 06:56:01;;;;;;;14.85;7.47;;;15.40;99.90;;;;;;5093635;28;20088;-68
2023/08/30 06:58:31;;;;;;;10.18;7.78;;;15.40;99.90;;;;;;5094632;28;20399;-67
2023/08/30 07:00:58;;;;;;;10.57;8.05;;;15.40;99.90;;;;;;5113900;27;20051;-66
2023/08/30 07:03:25;;;;;;;12.35;7.78;;;15.40;99.90;;;;;;5122034;27;20047;-67
2023/08/30 07:05:53;;;;;;;10.80;7.32;;;15.50;99.90;;;;;;5111362;28;20050;-68
2023/08/30 07:08:19;;;;;;;8.55;6.90;;;15.70;99.90;;;;;;5101555;27;20043;-68
2023/08/30 07:10:48;;;;;;;10.52;7.50;;;15.80;99.90;;;;;;5093478;27;20450;-67
2023/08/30 07:13:15;;;;;;;8.50;6.40;;;15.90;99.90;;;;;;5076292;27;20055;-67
2023/08/30 07:15:43;;;;;;;13.23;7.03;;;15.70;99.90;;;;;;5077585;28;20438;-69
2023/08/30 07:18:10;;;;;;;9.63;7.00;;;15.60;99.90;;;;;;5095969;28;20050;-67
2023/08/30 07:20:39;;;;;;;8.45;6.75;;;15.70;99.90;;;;;;5093809;27;20044;-68
2023/08/30 07:23:06;;;;;;;10.27;7.40;;;16.10;99.90;;;;;;5111291;28;20044;-67
2023/08/30 07:25:33;;;;;;;8.40;6.47;;;15.50;99.90;;;;;;5076670;27;20523;-67
2023/08/30 07:28:02;;;;;;;13.38;6.90;;;15.40;99.90;;;;;;5114162;27;20051;-68
2023/08/30 07:30:29;;;;;;;13.15;6.70;;;15.40;99.90;;;;;;5132038;27;20126;-68
2023/08/30 07:32:56;;;;;;;12.65;7.32;;;15.40;99.90;;;;;;5131889;27;20129;-68
2023/08/30 07:35:23;;;;;;;9.27;7.13;;;15.40;99.90;;;;;;5092335;28;20048;-68
2023/08/30 07:37:50;;;;;;;14.07;7.25;;;15.50;99.90;;;;;;5076342;28;20052;-68
2023/08/30 07:40:17;;;;;;;9.57;6.35;;;15.60;99.90;;;;;;5093028;27;20084;-67
2023/08/30 07:42:44;;;;;;;10.85;6.90;;;15.80;99.90;;;;;;5075919;28;20051;-67
2023/08/30 07:45:12;;;;;;;10.80;6.55;;;16.10;99.90;;;;;;5076552;27;20044;-68
2023/08/30 07:47:39;;;;;;;9.93;6.70;;;16.40;99.90;;;;;;5041712;28;20059;-67
2023/08/30 07:50:07;;;;;;;8.43;5.75;;;16.90;99.90;;;;;;5076630;28;20429;-68
2023/08/30 07:52:34;;;;;;;8.65;5.95;;;17.40;99.90;;;;;;5090867;28;20411;-67
2023/08/30 07:55:01;;;;;;;7.72;5.45;;;17.50;99.90;;;;;;5093661;28;20043;-68
2023/08/30 07:57:28;;;;;;;9.43;5.65;;;17.50;99.90;;;;;;5093801;28;20047;-67
2023/08/30 07:59:55;;;;;;;8.10;6.20;;;17.50;99.90;;;;;;5093601;28;20062;-67
2023/08/30 08:02:24;;;;;;;10.15;6.07;;;17.50;99.90;;;;;;5092184;28;20499;-67
2023/08/30 08:04:51;;;;;;;12.40;6.50;;;17.40;99.90;;;;;;5112344;28;20069;-67
2023/08/30 08:07:18;;;;;;;9.68;5.72;;;17.50;99.90;;;;;;5102596;28;20047;-67
2023/08/30 08:09:45;;;;;;;9.32;6.35;;;17.60;99.90;;;;;;5119938;27;20046;-66
2023/08/30 08:12:12;;;;;;;8.45;5.88;;;17.70;99.90;;;;;;5112444;28;20051;-67
2023/08/30 08:14:39;;;;;;;9.70;6.30;;;17.80;99.90;;;;;;5091481;28;20495;-67
2023/08/30 08:17:06;;;;;;;10.63;6.00;;;17.70;99.90;;;;;;5093530;28;20479;-67
2023/08/30 08:19:38;;;;;;;8.98;6.07;;;17.80;99.90;;;;;;5092455;28;20045;-67
2023/08/30 08:22:05;;;;;;;10.18;6.78;;;17.80;99.90;;;;;;5092587;28;20457;-67
2023/08/30 08:24:32;;;;;;;10.15;6.78;;;17.70;99.90;;;;;;5076113;28;20349;-67
2023/08/30 08:27:01;;;;;;;12.18;6.43;;;17.80;99.90;;;;;;5109213;28;20473;-68
2023/08/30 08:29:28;;;;;;;8.80;6.50;;;17.80;99.90;;;;;;5093342;28;20983;-67
2023/08/30 08:31:55;;;;;;;12.48;7.07;;;17.70;99.90;;;;;;5103544;28;20066;-68
2023/08/30 08:34:22;;;;;;;12.55;7.22;;;17.70;99.90;;;;;;5074892;28;20044;-67
2023/08/30 08:36:50;;;;;;;10.68;6.30;;;17.70;99.90;;;;;;5092301;28;20040;-67
2023/08/30 08:39:18;;;;;;;10.02;6.72;;;17.80;99.90;;;;;;5100659;28;20051;-67
2023/08/30 08:41:46;;;;;;;9.88;6.85;;;17.80;99.90;;;;;;5112142;28;20043;-68
2023/08/30 08:44:14;;;;;;;11.02;6.07;;;17.80;99.90;;;;;;5112245;28;20091;-69
2023/08/30 08:46:42;;;;;;;9.52;6.28;;;17.90;99.90;;;;;;5092075;28;20130;-67
2023/08/30 08:49:12;;;;;;;9.40;6.63;;;17.90;99.90;;;;;;5104228;28;20496;-68
2023/08/30 08:51:39;;;;;;;10.32;7.38;;;18.00;99.90;;;;;;5092890;28;20050;-68
2023/08/30 08:54:09;;;;;;;8.00;6.03;;;18.00;99.90;;;;;;5109855;28;20046;-68
2023/08/30 08:56:36;;;;;;;12.15;7.03;;;18.10;99.90;;;;;;5092894;28;20044;-68
2023/08/30 08:59:05;;;;;;;9.90;6.75;;;18.10;99.90;;;;;;5075088;28;20056;-69
2023/08/30 09:01:33;;;;;;;10.40;6.72;;;18.10;99.90;;;;;;5074500;28;20521;-68
2023/08/30 09:04:00;;;;;;;9.90;6.70;;;18.00;99.90;;;;;;5052243;28;20137;-67
2023/08/30 09:06:29;;;;;;;9.70;6.43;;;17.90;99.90;;;;;;5081835;28;20499;-67
2023/08/30 09:08:56;;;;;;;8.98;6.63;;;17.70;99.90;;;;;;5076536;28;20057;-67
2023/08/30 09:11:24;;;;;;;13.00;7.65;;;17.50;99.90;;;;;;5054116;28;20053;-67
2023/08/30 09:13:51;;;;;;;10.25;6.40;;;17.40;99.90;;;;;;5078260;28;20041;-66
2023/08/30 09:16:18;;;;;;;9.77;6.82;;;17.30;99.90;;;;;;5071386;28;20093;-67
2023/08/30 09:18:45;;;;;;;11.10;7.18;;;17.30;99.90;;;;;;5070976;28;20407;-67
2023/08/30 09:21:12;;;;;;;7.45;5.90;;;17.20;99.90;;;;;;5065490;28;20052;-69
2023/08/30 09:23:39;;;;;;;8.77;6.07;;;17.20;99.90;;;;;;5065855;28;20055;-68
2023/08/30 09:26:06;;;;;;;8.80;5.78;;;17.10;99.90;;;;;;5063427;28;20054;-69
2023/08/30 09:28:43;;;;;;;9.82;6.07;;;17.00;99.90;;;;;;5069595;28;20040;-67
2023/08/30 09:31:19;;;;;;;16.70;6.60;;;17.00;99.90;;;;;;5073954;28;20397;-69
2023/08/30 09:33:47;;;;;;;10.90;6.72;;;17.00;99.90;;;;;;5072284;28;20036;-68
2023/08/30 09:36:14;;;;;;;9.23;6.43;;;17.00;99.90;;;;;;5077913;28;20526;-68
2023/08/30 09:38:41;;;;;;;9.75;6.30;;;17.00;99.90;;;;;;5079323;28;20045;-69
2023/08/30 09:41:08;;;;;;;8.93;6.07;;;17.10;99.90;;;;;;5073423;28;20119;-67
2023/08/30 09:43:42;;;;;;;10.70;6.93;;;17.20;99.90;;;;;;5062552;28;20052;-67
2023/08/30 09:46:09;;;;;;;9.38;6.93;;;17.30;99.90;;;;;;5078071;28;20044;-67
2023/08/30 09:48:39;;;;;;;10.27;6.78;;;17.30;99.90;;;;;;5078299;28;20047;-67
2023/08/30 09:51:09;;;;;;;11.70;7.15;;;17.40;99.90;;;;;;5078268;28;20083;-67
2023/08/30 09:53:43;;;;;;;9.20;6.60;;;17.50;99.90;;;;;;5072326;28;20048;-67
2023/08/30 09:56:13;;;;;;;9.57;6.65;;;17.50;99.90;;;;;;5086599;28;20048;-67
2023/08/30 09:58:43;;;;;;;9.35;7.10;;;17.50;99.90;;;;;;5075940;28;20073;-66
2023/08/30 10:01:11;;;;;;;9.10;6.50;;;17.70;99.90;;;;;;5107186;28;20039;-67
2023/08/30 10:03:39;;;;;;;11.48;6.60;;;17.70;99.90;;;;;;5092933;28;20044;-67
2023/08/30 10:06:07;;;;;;;9.02;6.50;;;17.90;99.90;;;;;;5077071;28;20052;-68
2023/08/30 10:08:39;;;;;;;9.05;6.18;;;18.10;99.90;;;;;;5108363;28;20049;-67
2023/08/30 10:11:06;;;;;;;7.90;5.80;;;18.40;99.90;;;;;;5114305;28;20047;-67
2023/08/30 10:13:39;;;;;;;10.50;5.60;;;18.70;99.90;;;;;;5113167;28;20043;-67
2023/08/30 10:16:10;;;;;;;7.68;5.35;;;18.70;99.90;;;;;;5112333;28;20051;-67
2023/08/30 10:18:38;;;;;;;7.03;5.35;;;18.60;99.90;;;;;;5111689;28;20509;-67
2023/08/30 10:21:11;;;;;;;15.73;6.45;;;18.50;99.90;;;;;;5091420;28;20071;-67
2023/08/30 10:23:39;;;;;;;7.80;4.97;;;18.30;99.90;;;;;;5098040;28;20047;-67
2023/08/30 10:26:07;;;;;;;6.13;4.18;;;18.30;99.90;;;;;;5094153;28;20066;-68
2023/08/30 10:28:36;;;;;;;6.40;3.65;;;18.20;99.90;;;;;;5093917;28;20048;-67
2023/08/30 10:31:03;;;;;;;5.93;4.40;;;18.20;99.90;;;;;;5101270;28;20052;-66
2023/08/30 10:33:31;;;;;;;5.75;4.05;;;18.10;99.90;;;;;;5076685;28;20048;-67
2023/08/30 10:36:06;;;;;;;6.05;4.22;;;18.20;99.90;;;;;;5094019;28;20044;-66
2023/08/30 10:38:38;;;;;;;7.18;4.63;;;18.40;99.90;;;;;;5108267;28;20483;-66
2023/08/30 10:41:09;;;;;;;8.18;5.43;;;18.60;99.90;;;;;;5113508;28;20101;-68
2023/08/30 10:43:37;;;;;;;9.60;5.22;;;18.80;99.90;;;;;;5106105;28;20054;-67
2023/08/30 10:46:06;;;;;;;7.22;5.05;;;19.00;99.90;;;;;;5093901;28;20067;-67
2023/08/30 10:48:39;;;;;;;6.70;5.30;;;19.20;99.90;;;;;;5093542;28;20525;-67
2023/08/30 10:51:20;;;;;;;10.95;5.68;;;19.30;99.90;;;;;;5076214;28;20048;-67
2023/08/30 10:53:57;;;;;;;8.45;5.47;;;19.50;99.90;;;;;;5076258;28;20090;-67
2023/08/30 10:56:30;;;;;;;8.60;5.15;;;19.50;99.90;;;;;;5076043;28;20102;-66
2023/08/30 10:58:57;;;;;;;8.45;5.60;;;19.60;99.90;;;;;;5075693;28;20079;-67
2023/08/30 11:01:25;;;;;;;7.50;4.72;;;19.60;99.90;;;;;;5108179;28;20044;-67
2023/08/30 11:03:53;;;;;;;7.57;4.85;;;19.30;99.90;;;;;;5112615;28;20373;-67
2023/08/30 11:06:21;;;;;;;7.97;5.35;;;19.50;99.90;;;;;;5095943;28;20039;-67
2023/08/30 11:08:49;;;;;;;7.55;5.10;;;19.50;99.90;;;;;;5093318;28;20060;-67
2023/08/30 11:11:16;;;;;;;7.13;4.60;;;19.60;99.90;;;;;;5099999;28;20139;-68
2023/08/30 11:13:43;;;;;;;4.85;3.60;;;19.60;99.90;;;;;;5098413;28;20043;-67
2023/08/30 11:16:11;;;;;;;7.07;3.75;;;19.60;99.90;;;;;;5108808;28;20056;-68
2023/08/30 11:18:41;;;;;;;4.75;3.20;;;19.50;99.90;;;;;;5110406;28;20056;-68
2023/08/30 11:21:12;;;;;;;6.00;3.73;;;19.50;99.90;;;;;;5112489;28;20525;-66
2023/08/30 11:23:39;;;;;;;6.03;2.85;;;19.40;99.90;;;;;;5110377;28;20043;-67
2023/08/30 11:26:06;;;;;;;4.72;3.33;;;19.30;99.90;;;;;;5112541;28;20392;-68
2023/08/30 11:28:32;;;;;;;5.53;3.63;;;19.30;99.90;;;;;;5112795;28;20039;-68
2023/08/30 11:30:59;;;;;;;6.35;3.78;;;19.20;99.90;;;;;;5110250;28;20067;-67
2023/08/30 11:33:26;;;;;;;4.80;3.25;;;19.10;99.90;;;;;;5110484;28;20062;-67
2023/08/30 11:35:53;;;;;;;7.20;4.35;;;19.00;99.90;;;;;;5090947;28;20044;-67
2023/08/30 11:38:22;;;;;;;7.93;4.22;;;19.00;99.90;;;;;;5092569;28;20044;-67
2023/08/30 11:40:52;;;;;;;9.38;5.28;;;18.90;99.90;;;;;;5075581;28;20087;-68
2023/08/30 11:43:20;;;;;;;6.18;4.53;;;18.80;99.90;;;;;;5093143;28;20400;-67
2023/08/30 11:45:47;;;;;;;7.10;4.30;;;18.80;99.90;;;;;;5075200;28;20044;-67
2023/08/30 11:48:14;;;;;;;7.68;4.68;;;18.90;99.90;;;;;;5075456;28;20049;-68
2023/08/30 11:50:43;;;;;;;5.72;4.03;;;18.80;99.90;;;;;;5091862;28;20039;-67
2023/08/30 11:53:10;;;;;;;6.15;4.43;;;18.90;99.90;;;;;;5074927;28;20416;-67
2023/08/30 11:55:39;;;;;;;6.07;4.30;;;18.90;99.90;;;;;;5107988;28;20036;-68
2023/08/30 11:58:06;;;;;;;5.63;4.18;;;18.90;99.90;;;;;;5097564;28;20168;-67
2023/08/30 12:00:35;;;;;;;7.20;4.50;;;18.80;99.90;;;;;;5089389;28;20048;-67
2023/08/30 12:03:02;;;;;;;6.22;4.10;;;18.70;99.90;;;;;;5069258;28;20064;-67
2023/08/30 12:05:33;;;;;;;6.30;3.92;;;18.60;99.90;;;;;;5071476;28;20052;-67
2023/08/30 12:08:00;;;;;;;7.28;4.18;;;18.60;99.90;;;;;;5080662;28;20139;-68
2023/08/30 12:10:29;;;;;;;6.85;3.92;;;18.50;99.90;;;;;;5068751;28;20056;-68
2023/08/30 12:12:58;;;;;;;5.63;4.07;;;18.40;99.90;;;;;;5070571;28;20106;-67
2023/08/30 12:15:27;;;;;;;6.60;3.97;;;18.30;99.90;;;;;;5071017;28;20047;-67
2023/08/30 12:17:55;;;;;;;9.32;4.18;;;18.10;99.90;;;;;;5071383;28;20056;-69
2023/08/30 12:20:23;;;;;;;8.02;4.80;;;17.90;99.90;;;;;;5059009;28;20044;-67
2023/08/30 12:22:51;;;;;;;6.47;4.97;;;17.90;99.90;;;;;;5067370;28;20451;-67
2023/08/30 12:25:18;;;;;;;7.57;4.85;;;17.70;99.90;;;;;;5070823;28;20052;-69
2023/08/30 12:27:46;;;;;;;8.32;4.70;;;17.60;99.90;;;;;;5066300;28;20094;-67
2023/08/30 12:30:15;;;;;;;7.72;5.03;;;17.50;99.90;;;;;;5069993;28;20040;-66
2023/08/30 12:32:43;;;;;;;9.48;5.47;;;17.30;99.90;;;;;;5069819;28;20532;-67
2023/08/30 12:35:10;;;;;;;9.10;5.32;;;17.10;99.90;;;;;;5070504;28;20063;-69
2023/08/30 12:37:37;;;;;;;7.47;5.05;;;17.10;99.90;;;;;;5067361;28;20049;-67
2023/08/30 12:40:05;;;;;;;11.30;5.55;;;17.00;99.90;;;;;;5068305;28;20059;-67